Terminal Aerodrome Forecast
Issued by NWS

Home | Current Version | Previous Version | Text Only | Print | Product List | Glossary Off
Versions: 1 2 3 4 5 6 7 8 9 10 11 12 13 14 15 16 17 18 19 20 21 22 23 24 25 26 27 28 29 30 31 32 33 34 35 36

000
FTUS43 KLOT 292201 AAC
TAFORD
TAF AMD
KORD 292201Z 2922/3024 VRB06KT 6SM SHRA VCTS SCT020 BKN050CB
     FM300000 09006KT P6SM VCSH BKN030
     FM300200 00000KT P6SM SCT070 BKN250
     FM300500 27005KT 5SM -SHRA BR SCT010 BKN030
     FM300800 29005KT 4SM BR OVC020
     FM301400 29009KT P6SM BKN035
     FM302000 33010KT P6SM VCSH BKN045=

USA.gov is the U.S. government's official web portal to all federal, state and local government web resources and services.